Time;durP1;ratioP1;P1;durP2;ratioP2;P2;SDS_P1;SDS_P2;PMS_P1;PMS_P2;Temp;Humidity;BMP_temperature;BMP_pressure;BME280_temperature;BME280_humidity;BME280_pressure;Samples;Min_cycle;Max_cycle;Signal;HPM_P1;HPM_P2
2023/02/25 00:00:30;;;;;;;3.38;2.08;;;;;;;;;;5048939;28;20041;-65
2023/02/25 00:03:00;;;;;;;2.28;1.17;;;;;;;;;;5031961;28;20049;-65
2023/02/25 00:05:30;;;;;;;2.83;1.60;;;;;;;;;;5015584;28;20053;-66
2023/02/25 00:08:00;;;;;;;4.25;1.42;;;;;;;;;;5032020;28;20057;-65
2023/02/25 00:10:30;;;;;;;4.72;0.85;;;;;;;;;;5048742;28;20068;-65
2023/02/25 00:13:03;;;;;;;2.70;1.00;;;;;;;;;;5048623;28;20153;-65
2023/02/25 00:15:45;;;;;;;3.38;1.02;;;;;;;;;;5048546;28;20049;-65
2023/02/25 00:18:15;;;;;;;2.40;1.35;;;;;;;;;;5048604;28;20076;-66
2023/02/25 00:20:45;;;;;;;2.47;1.10;;;;;;;;;;5015955;28;20053;-65
2023/02/25 00:23:14;;;;;;;1.75;0.95;;;;;;;;;;5031061;28;20053;-65
2023/02/25 00:25:48;;;;;;;1.27;0.80;;;;;;;;;;5015869;28;20083;-65
2023/02/25 00:28:17;;;;;;;1.55;0.93;;;;;;;;;;5048801;28;20056;-65
2023/02/25 00:30:48;;;;;;;4.45;1.17;;;;;;;;;;5040242;28;20068;-65
2023/02/25 00:33:19;;;;;;;1.85;0.95;;;;;;;;;;5015345;28;20061;-65
2023/02/25 00:35:49;;;;;;;1.67;0.82;;;;;;;;;;5032727;28;20457;-65
2023/02/25 00:38:19;;;;;;;1.17;0.63;;;;;;;;;;5015307;28;20053;-64
2023/02/25 00:40:50;;;;;;;1.83;0.88;;;;;;;;;;5015237;28;20057;-64
2023/02/25 00:43:20;;;;;;;1.77;0.93;;;;;;;;;;5028258;28;20056;-65
2023/02/25 00:45:52;;;;;;;2.92;1.02;;;;;;;;;;5044391;28;20783;-65
2023/02/25 00:48:21;;;;;;;1.50;0.77;;;;;;;;;;5028372;28;20105;-65
2023/02/25 00:50:51;;;;;;;2.13;1.40;;;;;;;;;;4997549;28;20413;-65
2023/02/25 00:53:21;;;;;;;3.20;1.00;;;;;;;;;;5052256;28;20049;-65
2023/02/25 00:55:58;;;;;;;1.65;1.10;;;;;;;;;;5052383;28;20420;-64
2023/02/25 00:58:28;;;;;;;1.80;0.60;;;;;;;;;;5018896;28;20053;-64
2023/02/25 01:00:59;;;;;;;1.40;0.90;;;;;;;;;;5035289;28;20425;-65
2023/02/25 01:03:29;;;;;;;3.50;0.73;;;;;;;;;;5051928;28;20049;-65
2023/02/25 01:05:58;;;;;;;2.95;0.60;;;;;;;;;;5051903;28;20061;-64
2023/02/25 01:08:29;;;;;;;1.50;0.70;;;;;;;;;;5021444;28;20054;-65
2023/02/25 01:10:58;;;;;;;1.58;0.70;;;;;;;;;;5011900;28;20046;-64
2023/02/25 01:13:28;;;;;;;2.42;0.73;;;;;;;;;;5012064;28;20514;-64
2023/02/25 01:15:59;;;;;;;3.58;0.70;;;;;;;;;;5012244;28;20067;-64
2023/02/25 01:18:29;;;;;;;1.95;0.70;;;;;;;;;;4995603;28;20045;-64
2023/02/25 01:20:59;;;;;;;5.05;0.60;;;;;;;;;;4960005;28;20053;-64
2023/02/25 01:23:29;;;;;;;2.42;0.70;;;;;;;;;;4943282;28;20054;-64
2023/02/25 01:26:04;;;;;;;1.15;0.68;;;;;;;;;;4992092;28;20066;-64
2023/02/25 01:28:34;;;;;;;1.52;0.50;;;;;;;;;;4992167;28;20502;-64
2023/02/25 01:31:04;;;;;;;3.75;0.65;;;;;;;;;;4992365;28;20507;-64
2023/02/25 01:33:37;;;;;;;2.83;0.73;;;;;;;;;;4992281;28;20062;-64
2023/02/25 01:36:07;;;;;;;5.15;0.77;;;;;;;;;;4953238;28;20051;-64
2023/02/25 01:38:37;;;;;;;1.58;0.70;;;;;;;;;;4921345;28;20527;-64
2023/02/25 01:41:08;;;;;;;2.85;1.00;;;;;;;;;;4908621;29;20056;-64
2023/02/25 01:43:40;;;;;;;5.68;0.75;;;;;;;;;;4915155;29;20056;-64
2023/02/25 01:46:10;;;;;;;3.38;0.68;;;;;;;;;;4893534;29;20056;-64
2023/02/25 01:48:40;;;;;;;3.72;0.80;;;;;;;;;;4934162;29;20067;-64
2023/02/25 01:51:14;;;;;;;1.88;0.70;;;;;;;;;;4918095;29;20542;-64
2023/02/25 01:53:46;;;;;;;3.88;0.70;;;;;;;;;;4918295;29;20063;-64
2023/02/25 01:56:21;;;;;;;5.20;0.70;;;;;;;;;;4902132;29;20048;-64
2023/02/25 01:58:53;;;;;;;3.58;0.88;;;;;;;;;;4933296;29;20048;-65
2023/02/25 02:01:28;;;;;;;4.47;1.33;;;;;;;;;;4898438;29;20051;-65
2023/02/25 02:04:03;;;;;;;3.35;0.93;;;;;;;;;;4901133;29;20054;-65
2023/02/25 02:06:36;;;;;;;4.35;1.33;;;;;;;;;;4850941;29;20444;-65
2023/02/25 02:09:12;;;;;;;3.50;0.80;;;;;;;;;;4895510;29;20060;-65
2023/02/25 02:11:42;;;;;;;8.23;0.93;;;;;;;;;;4886257;29;20056;-65
2023/02/25 02:14:22;;;;;;;3.95;1.00;;;;;;;;;;4927204;29;20071;-65
2023/02/25 02:17:22;;;;;;;2.80;1.05;;;;;;;;;;4933495;29;20063;-65
2023/02/25 02:20:19;;;;;;;5.80;1.27;;;;;;;;;;4879541;29;20053;-65
2023/02/25 02:23:22;;;;;;;2.53;1.23;;;;;;;;;;4910920;29;20060;-65
2023/02/25 02:26:26;;;;;;;4.93;0.93;;;;;;;;;;4895302;29;20065;-65
2023/02/25 02:29:18;;;;;;;5.82;1.20;;;;;;;;;;4896334;29;20060;-66
2023/02/25 02:31:51;;;;;;;5.93;1.40;;;;;;;;;;4929631;29;20056;-66
2023/02/25 02:34:39;;;;;;;3.65;1.20;;;;;;;;;;4907721;29;20059;-65
2023/02/25 02:37:31;;;;;;;5.30;1.20;;;;;;;;;;4901769;29;20527;-65
2023/02/25 02:40:13;;;;;;;2.83;1.13;;;;;;;;;;4913989;29;20571;-65
2023/02/25 02:42:49;;;;;;;3.35;1.38;;;;;;;;;;4949165;29;20055;-65
2023/02/25 02:45:42;;;;;;;2.13;1.20;;;;;;;;;;4933885;29;20059;-65
2023/02/25 02:48:22;;;;;;;1.58;1.00;;;;;;;;;;4932744;29;20092;-65
2023/02/25 02:51:00;;;;;;;2.78;1.02;;;;;;;;;;4940316;29;20059;-66
2023/02/25 02:53:54;;;;;;;4.03;0.90;;;;;;;;;;4952105;29;20067;-65
2023/02/25 02:56:26;;;;;;;4.38;2.13;;;;;;;;;;4932695;29;20436;-65
2023/02/25 02:59:07;;;;;;;4.35;0.95;;;;;;;;;;4932887;29;20070;-65
2023/02/25 03:01:50;;;;;;;4.35;1.00;;;;;;;;;;4951332;29;20059;-65
2023/02/25 03:04:26;;;;;;;3.67;0.98;;;;;;;;;;4932167;29;20100;-65
2023/02/25 03:07:01;;;;;;;4.10;1.17;;;;;;;;;;4932155;29;20047;-66
2023/02/25 03:09:39;;;;;;;5.80;1.20;;;;;;;;;;4875351;29;20048;-65
2023/02/25 03:12:09;;;;;;;2.30;0.93;;;;;;;;;;4913324;29;20149;-64
2023/02/25 03:14:39;;;;;;;3.55;1.05;;;;;;;;;;4864122;29;20518;-65
2023/02/25 03:17:11;;;;;;;2.13;1.10;;;;;;;;;;4894094;29;20498;-64
2023/02/25 03:19:41;;;;;;;2.67;1.00;;;;;;;;;;4878471;29;20048;-64
2023/02/25 03:22:19;;;;;;;2.55;1.13;;;;;;;;;;4878431;29;20060;-64
2023/02/25 03:24:52;;;;;;;;;;;;;;;;;;4887442;29;20065;-64
2023/02/25 03:27:27;;;;;;;6.88;1.45;;;;;;;;;;4875662;29;19924;-64
2023/02/25 03:30:23;;;;;;;1.90;0.98;;;;;;;;;;4856773;29;20061;-63
2023/02/25 03:33:17;;;;;;;5.13;1.02;;;;;;;;;;4845453;29;20069;-63
2023/02/25 03:35:50;;;;;;;4.65;1.15;;;;;;;;;;4852989;29;20053;-64
2023/02/25 03:38:25;;;;;;;4.55;0.98;;;;;;;;;;4844675;29;20518;-63
2023/02/25 03:40:57;;;;;;;4.45;1.23;;;;;;;;;;4928561;29;20063;-64
2023/02/25 03:43:35;;;;;;;2.33;0.95;;;;;;;;;;4893768;29;20049;-64
2023/02/25 03:46:07;;;;;;;2.10;1.17;;;;;;;;;;4893954;29;20390;-64
2023/02/25 03:48:39;;;;;;;1.65;1.17;;;;;;;;;;4912484;29;20063;-64
2023/02/25 03:51:17;;;;;;;3.75;0.90;;;;;;;;;;4904738;29;20057;-65
2023/02/25 03:53:49;;;;;;;1.92;1.00;;;;;;;;;;4893779;29;20053;-63
2023/02/25 03:56:22;;;;;;;3.15;1.33;;;;;;;;;;4893778;29;20057;-65
2023/02/25 03:58:53;;;;;;;6.70;1.40;;;;;;;;;;4912612;29;20048;-64
2023/02/25 04:01:29;;;;;;;3.30;1.23;;;;;;;;;;4897035;29;20425;-64
2023/02/25 04:03:58;;;;;;;2.38;1.08;;;;;;;;;;4931385;29;20079;-64
2023/02/25 04:06:28;;;;;;;2.80;0.93;;;;;;;;;;4950552;29;20067;-64
2023/02/25 04:08:58;;;;;;;1.80;0.93;;;;;;;;;;4931317;29;20058;-64
2023/02/25 04:11:28;;;;;;;2.78;1.08;;;;;;;;;;4930960;29;20075;-64
2023/02/25 04:13:58;;;;;;;6.63;0.90;;;;;;;;;;4842186;29;20053;-65
2023/02/25 04:16:28;;;;;;;2.70;1.45;;;;;;;;;;4856045;29;20045;-64
2023/02/25 04:18:59;;;;;;;5.50;1.10;;;;;;;;;;4868220;29;21142;-65
2023/02/25 04:21:35;;;;;;;2.75;1.05;;;;;;;;;;4886739;29;20064;-65
2023/02/25 04:24:05;;;;;;;1.80;0.85;;;;;;;;;;4893713;29;20072;-65
2023/02/25 04:26:35;;;;;;;2.38;1.25;;;;;;;;;;4893152;29;20417;-64
2023/02/25 04:29:05;;;;;;;2.55;1.02;;;;;;;;;;4897678;29;20063;-65
2023/02/25 04:31:35;;;;;;;4.75;1.00;;;;;;;;;;4879853;29;20061;-65
2023/02/25 04:34:05;;;;;;;2.83;0.80;;;;;;;;;;4856611;29;20086;-64
2023/02/25 04:36:36;;;;;;;2.00;0.73;;;;;;;;;;4887392;29;20061;-64
2023/02/25 04:39:05;;;;;;;2.65;0.80;;;;;;;;;;4874902;29;20057;-64
2023/02/25 04:41:36;;;;;;;4.68;1.10;;;;;;;;;;4913964;29;20068;-64
2023/02/25 04:44:07;;;;;;;2.28;1.02;;;;;;;;;;4923348;29;20057;-64
2023/02/25 04:46:39;;;;;;;7.22;1.05;;;;;;;;;;4937317;29;20051;-64
2023/02/25 04:49:09;;;;;;;5.90;1.23;;;;;;;;;;4940708;29;20059;-65
2023/02/25 04:51:39;;;;;;;2.30;1.23;;;;;;;;;;4950458;29;20431;-65
2023/02/25 04:54:09;;;;;;;2.95;0.98;;;;;;;;;;4973219;28;20077;-64
2023/02/25 04:56:39;;;;;;;4.03;1.40;;;;;;;;;;4999120;28;20049;-65
2023/02/25 04:59:10;;;;;;;2.45;1.10;;;;;;;;;;5032198;28;20425;-65
2023/02/25 05:01:40;;;;;;;5.93;1.08;;;;;;;;;;5050985;28;20033;-65
2023/02/25 05:04:09;;;;;;;3.28;1.52;;;;;;;;;;5050735;28;20056;-65
2023/02/25 05:06:39;;;;;;;3.25;1.23;;;;;;;;;;5048433;28;20135;-65
2023/02/25 05:09:09;;;;;;;3.47;1.00;;;;;;;;;;5030985;28;20049;-65
2023/02/25 05:11:39;;;;;;;2.65;1.10;;;;;;;;;;5015360;28;20057;-64
2023/02/25 05:14:09;;;;;;;2.22;1.13;;;;;;;;;;5032295;28;20049;-65
2023/02/25 05:16:39;;;;;;;3.15;1.10;;;;;;;;;;5032115;28;20064;-65
2023/02/25 05:19:14;;;;;;;3.13;1.10;;;;;;;;;;5050725;28;20405;-65
2023/02/25 05:21:44;;;;;;;2.30;0.90;;;;;;;;;;5050357;28;20049;-65
2023/02/25 05:24:13;;;;;;;3.05;1.10;;;;;;;;;;5050525;28;20049;-65
2023/02/25 05:26:44;;;;;;;2.40;0.80;;;;;;;;;;5064961;28;20049;-65
2023/02/25 05:29:14;;;;;;;5.43;1.38;;;;;;;;;;5050674;28;20389;-65
2023/02/25 05:31:43;;;;;;;1.80;0.93;;;;;;;;;;5050621;28;20052;-65
2023/02/25 05:34:13;;;;;;;2.22;0.82;;;;;;;;;;5050636;28;20036;-64
2023/02/25 05:36:45;;;;;;;3.15;1.23;;;;;;;;;;5031943;28;20049;-64
2023/02/25 05:39:15;;;;;;;2.80;1.05;;;;;;;;;;5002344;28;20045;-64
2023/02/25 05:41:44;;;;;;;2.85;1.10;;;;;;;;;;5051663;28;20079;-64
2023/02/25 05:44:15;;;;;;;4.35;1.13;;;;;;;;;;5068190;28;20072;-64
2023/02/25 05:46:45;;;;;;;8.32;1.33;;;;;;;;;;5053890;28;20068;-64
2023/02/25 05:49:14;;;;;;;2.13;1.15;;;;;;;;;;5053502;28;20041;-64
2023/02/25 05:51:44;;;;;;;1.55;1.02;;;;;;;;;;5051527;28;20527;-64
2023/02/25 05:54:14;;;;;;;4.10;1.45;;;;;;;;;;5051485;28;20067;-64
2023/02/25 05:56:43;;;;;;;2.20;1.45;;;;;;;;;;5052741;28;20040;-64
2023/02/25 05:59:15;;;;;;;1.92;1.08;;;;;;;;;;5053780;28;20045;-65
2023/02/25 06:01:45;;;;;;;2.72;1.20;;;;;;;;;;5034881;28;20496;-64
2023/02/25 06:04:15;;;;;;;2.17;1.20;;;;;;;;;;5034862;28;20080;-65
2023/02/25 06:06:49;;;;;;;3.65;1.17;;;;;;;;;;5052989;28;20045;-65
2023/02/25 06:09:20;;;;;;;3.67;1.23;;;;;;;;;;5051305;28;20052;-65
2023/02/25 06:11:49;;;;;;;3.05;1.40;;;;;;;;;;5050939;28;20045;-64
2023/02/25 06:14:20;;;;;;;5.72;2.15;;;;;;;;;;5053091;28;20370;-65
2023/02/25 06:16:50;;;;;;;4.20;1.10;;;;;;;;;;5053290;28;20064;-65
2023/02/25 06:19:20;;;;;;;3.08;1.17;;;;;;;;;;5034336;28;20527;-65
2023/02/25 06:21:50;;;;;;;4.65;1.45;;;;;;;;;;5053066;28;20041;-65
2023/02/25 06:24:20;;;;;;;4.18;1.10;;;;;;;;;;5070577;28;20044;-65
2023/02/25 06:26:50;;;;;;;4.93;1.10;;;;;;;;;;5054314;28;20079;-64
2023/02/25 06:29:20;;;;;;;4.40;1.65;;;;;;;;;;5037290;28;20428;-65
2023/02/25 06:31:50;;;;;;;3.92;1.20;;;;;;;;;;5054034;28;20057;-65
2023/02/25 06:34:20;;;;;;;6.70;1.02;;;;;;;;;;5070517;28;20057;-65
2023/02/25 06:36:50;;;;;;;3.55;1.33;;;;;;;;;;5053955;28;20504;-65
2023/02/25 06:39:19;;;;;;;2.20;1.00;;;;;;;;;;5070677;28;20052;-65
2023/02/25 06:41:49;;;;;;;4.05;1.05;;;;;;;;;;5036870;28;20053;-65
2023/02/25 06:44:19;;;;;;;2.45;1.13;;;;;;;;;;5070480;28;20047;-64
2023/02/25 06:46:54;;;;;;;3.25;1.23;;;;;;;;;;5070171;28;20479;-65
2023/02/25 06:49:24;;;;;;;3.65;1.13;;;;;;;;;;5069664;28;20048;-65
2023/02/25 06:51:54;;;;;;;5.03;1.13;;;;;;;;;;5053619;28;20052;-65
2023/02/25 06:54:23;;;;;;;2.58;0.95;;;;;;;;;;5037437;28;20061;-64
2023/02/25 06:56:54;;;;;;;2.78;1.38;;;;;;;;;;5069819;28;20144;-64
2023/02/25 06:59:24;;;;;;;1.77;1.13;;;;;;;;;;5070209;28;20535;-64
2023/02/25 07:01:55;;;;;;;2.25;1.30;;;;;;;;;;5061349;28;20060;-65
2023/02/25 07:04:24;;;;;;;3.42;1.23;;;;;;;;;;5050088;28;20075;-65
2023/02/25 07:06:55;;;;;;;5.00;1.02;;;;;;;;;;5052182;28;20052;-65
2023/02/25 07:09:24;;;;;;;5.88;1.27;;;;;;;;;;5052049;28;20099;-65
2023/02/25 07:11:54;;;;;;;5.03;1.33;;;;;;;;;;5060117;28;20049;-65
2023/02/25 07:14:24;;;;;;;4.28;1.63;;;;;;;;;;5036935;28;20056;-65
2023/02/25 07:16:54;;;;;;;3.00;1.23;;;;;;;;;;5053135;28;20067;-65
2023/02/25 07:19:24;;;;;;;2.97;1.30;;;;;;;;;;5036728;28;20497;-65
2023/02/25 07:21:53;;;;;;;4.80;1.33;;;;;;;;;;5071650;28;20052;-65
2023/02/25 07:24:25;;;;;;;1.80;1.02;;;;;;;;;;5072309;28;20563;-65
2023/02/25 07:26:55;;;;;;;4.70;1.25;;;;;;;;;;4988754;28;20060;-65
2023/02/25 07:29:25;;;;;;;3.10;1.25;;;;;;;;;;5036610;28;20056;-64
2023/02/25 07:31:55;;;;;;;5.45;1.20;;;;;;;;;;5071749;28;20051;-65
2023/02/25 07:34:26;;;;;;;3.28;1.20;;;;;;;;;;5053576;28;20499;-65
2023/02/25 07:36:55;;;;;;;4.53;1.10;;;;;;;;;;5071862;28;20048;-65
2023/02/25 07:39:25;;;;;;;3.63;1.20;;;;;;;;;;5071778;28;20044;-65
2023/02/25 07:41:55;;;;;;;1.67;1.23;;;;;;;;;;5053295;28;20059;-64
2023/02/25 07:44:28;;;;;;;3.50;1.10;;;;;;;;;;5029130;28;20057;-65
2023/02/25 07:46:58;;;;;;;5.45;1.23;;;;;;;;;;5029210;28;20065;-64
2023/02/25 07:49:27;;;;;;;2.90;1.10;;;;;;;;;;5029331;28;20049;-64
2023/02/25 07:51:57;;;;;;;2.78;1.50;;;;;;;;;;4964059;28;20453;-64
2023/02/25 07:54:27;;;;;;;6.88;1.60;;;;;;;;;;5029133;28;20045;-64
2023/02/25 07:56:57;;;;;;;3.42;1.13;;;;;;;;;;5012656;28;20093;-64
2023/02/25 07:59:27;;;;;;;2.65;1.20;;;;;;;;;;5028764;28;20056;-64
2023/02/25 08:01:57;;;;;;;4.85;1.30;;;;;;;;;;4979565;28;20072;-65
2023/02/25 08:04:28;;;;;;;7.47;1.50;;;;;;;;;;4979877;28;20548;-65
2023/02/25 08:06:59;;;;;;;3.25;1.13;;;;;;;;;;5012284;28;20057;-65
2023/02/25 08:09:29;;;;;;;4.88;1.45;;;;;;;;;;5028633;28;20057;-64
2023/02/25 08:11:59;;;;;;;2.90;1.40;;;;;;;;;;4976127;28;20049;-65
2023/02/25 08:14:29;;;;;;;4.78;2.25;;;;;;;;;;5009129;28;20371;-64
2023/02/25 08:17:00;;;;;;;7.03;1.55;;;;;;;;;;5009070;28;20057;-65
2023/02/25 08:19:30;;;;;;;3.63;1.30;;;;;;;;;;4976706;28;20050;-65
2023/02/25 08:22:00;;;;;;;3.97;1.23;;;;;;;;;;4978490;28;20061;-64
2023/02/25 08:24:31;;;;;;;5.50;1.52;;;;;;;;;;5032067;28;20784;-65
2023/02/25 08:27:01;;;;;;;5.85;1.75;;;;;;;;;;5048336;28;20045;-65
2023/02/25 08:29:30;;;;;;;3.95;1.75;;;;;;;;;;5048309;28;20071;-64
2023/02/25 08:32:00;;;;;;;8.98;1.65;;;;;;;;;;4999432;28;20061;-65
2023/02/25 08:34:31;;;;;;;6.60;1.33;;;;;;;;;;5048930;28;20041;-65
2023/02/25 08:37:01;;;;;;;10.18;2.10;;;;;;;;;;5048401;28;20625;-64
2023/02/25 08:39:32;;;;;;;8.32;2.13;;;;;;;;;;5048513;28;20056;-65
2023/02/25 08:42:03;;;;;;;4.95;1.40;;;;;;;;;;5048403;28;20076;-65
2023/02/25 08:44:33;;;;;;;5.88;1.67;;;;;;;;;;5048335;28;20049;-64
2023/02/25 08:47:03;;;;;;;6.55;1.50;;;;;;;;;;5048238;28;20040;-64
2023/02/25 08:49:35;;;;;;;8.70;1.50;;;;;;;;;;5022324;28;20053;-65
2023/02/25 08:52:05;;;;;;;6.45;1.95;;;;;;;;;;5028464;28;20057;-65
2023/02/25 08:54:34;;;;;;;5.80;2.03;;;;;;;;;;5028660;28;20061;-65
2023/02/25 08:57:04;;;;;;;9.13;1.75;;;;;;;;;;5028491;28;20060;-65
2023/02/25 08:59:37;;;;;;;5.32;1.13;;;;;;;;;;4995121;28;20046;-64
2023/02/25 09:02:13;;;;;;;4.60;1.60;;;;;;;;;;5028649;28;20057;-65
2023/02/25 09:04:43;;;;;;;6.18;1.63;;;;;;;;;;5028247;28;20057;-65
2023/02/25 09:07:15;;;;;;;6.75;1.60;;;;;;;;;;5028524;28;20383;-64
2023/02/25 09:09:45;;;;;;;5.30;1.17;;;;;;;;;;5028387;28;20065;-65
2023/02/25 09:12:15;;;;;;;6.55;1.63;;;;;;;;;;5013468;28;20052;-65
2023/02/25 09:14:44;;;;;;;2.47;1.30;;;;;;;;;;5032652;28;20065;-65
2023/02/25 09:17:14;;;;;;;7.65;1.30;;;;;;;;;;5015788;28;20057;-65
2023/02/25 09:19:44;;;;;;;3.00;1.20;;;;;;;;;;5031906;28;20057;-65
2023/02/25 09:22:14;;;;;;;3.15;1.58;;;;;;;;;;5032061;28;20146;-65
2023/02/25 09:24:43;;;;;;;7.45;1.65;;;;;;;;;;5031688;28;20058;-65
2023/02/25 09:27:13;;;;;;;5.40;1.70;;;;;;;;;;5019212;28;20060;-65
2023/02/25 09:29:43;;;;;;;6.43;2.03;;;;;;;;;;5074647;28;20398;-65
2023/02/25 09:32:19;;;;;;;5.05;1.92;;;;;;;;;;5057105;28;20048;-64
2023/02/25 09:34:49;;;;;;;6.35;2.38;;;;;;;;;;5074580;28;20040;-65
2023/02/25 09:37:19;;;;;;;6.97;2.63;;;;;;;;;;5073904;28;20041;-65
2023/02/25 09:39:49;;;;;;;5.22;2.42;;;;;;;;;;5038849;28;20065;-65
2023/02/25 09:42:24;;;;;;;16.17;2.58;;;;;;;;;;5023037;28;20048;-65
2023/02/25 09:45:00;;;;;;;8.52;2.55;;;;;;;;;;5073718;28;20471;-65
2023/02/25 09:47:57;;;;;;;9.35;3.30;;;;;;;;;;5022014;28;20067;-65
2023/02/25 09:50:37;;;;;;;6.82;2.90;;;;;;;;;;5038949;28;20060;-65
2023/02/25 09:53:23;;;;;;;5.85;2.58;;;;;;;;;;5074347;28;20059;-64
2023/02/25 09:55:53;;;;;;;6.65;2.42;;;;;;;;;;5073848;28;20048;-65
2023/02/25 09:58:50;;;;;;;5.65;2.30;;;;;;;;;;5073808;28;20488;-65
2023/02/25 10:01:33;;;;;;;4.63;2.40;;;;;;;;;;4972574;28;20615;-65
2023/02/25 10:04:33;;;;;;;4.40;2.22;;;;;;;;;;4972400;28;20054;-65
2023/02/25 10:07:21;;;;;;;5.40;2.50;;;;;;;;;;4971908;28;20058;-64
2023/02/25 10:10:01;;;;;;;6.15;2.05;;;;;;;;;;4940350;28;20514;-64
2023/02/25 10:12:41;;;;;;;5.63;2.15;;;;;;;;;;4956050;28;20071;-63
2023/02/25 10:15:19;;;;;;;12.48;2.30;;;;;;;;;;4955926;28;20062;-65
2023/02/25 10:18:22;;;;;;;8.50;2.38;;;;;;;;;;4971916;28;20459;-65
2023/02/25 10:20:57;;;;;;;5.85;1.50;;;;;;;;;;4939610;28;20565;-64
2023/02/25 10:23:51;;;;;;;4.25;1.88;;;;;;;;;;4954801;28;20054;-64
2023/02/25 10:26:31;;;;;;;4.32;1.48;;;;;;;;;;4971632;28;20055;-65
2023/02/25 10:29:12;;;;;;;3.35;2.25;;;;;;;;;;4955558;28;20511;-64
2023/02/25 10:31:45;;;;;;;4.72;1.65;;;;;;;;;;4971943;28;20051;-65
2023/02/25 10:34:26;;;;;;;4.38;1.70;;;;;;;;;;4955727;28;20065;-65
2023/02/25 10:36:58;;;;;;;7.20;2.22;;;;;;;;;;4971806;28;20046;-64
2023/02/25 10:39:30;;;;;;;5.47;1.73;;;;;;;;;;5032061;28;20064;-64
2023/02/25 10:41:59;;;;;;;5.13;1.83;;;;;;;;;;5054479;28;20064;-65
2023/02/25 10:44:29;;;;;;;4.40;2.10;;;;;;;;;;5070401;28;20056;-65
2023/02/25 10:47:14;;;;;;;4.15;1.60;;;;;;;;;;5072665;28;20526;-65
2023/02/25 10:50:26;;;;;;;7.25;3.08;;;;;;;;;;5022046;28;20057;-65
2023/02/25 10:53:18;;;;;;;9.77;5.72;;;;;;;;;;5037233;28;20052;-65
2023/02/25 10:55:53;;;;;;;9.45;4.43;;;;;;;;;;5037150;28;20071;-65
2023/02/25 10:58:43;;;;;;;8.23;6.05;;;;;;;;;;5070066;28;20497;-64
2023/02/25 11:01:21;;;;;;;9.02;3.92;;;;;;;;;;5072494;28;20419;-65
2023/02/25 11:04:00;;;;;;;4.03;2.10;;;;;;;;;;5072179;28;20507;-65
2023/02/25 11:06:39;;;;;;;4.30;2.58;;;;;;;;;;5072441;28;20056;-65
2023/02/25 11:09:35;;;;;;;4.60;2.13;;;;;;;;;;5071944;28;20056;-65
2023/02/25 11:12:19;;;;;;;3.63;2.22;;;;;;;;;;5072019;28;20052;-64
2023/02/25 11:14:49;;;;;;;5.80;2.60;;;;;;;;;;5072268;28;20040;-65
2023/02/25 11:17:20;;;;;;;3.67;2.13;;;;;;;;;;5036444;28;20056;-65
2023/02/25 11:19:59;;;;;;;4.53;2.15;;;;;;;;;;4988709;28;20060;-65
2023/02/25 11:22:36;;;;;;;2.78;1.90;;;;;;;;;;5071788;28;20044;-65
2023/02/25 11:25:16;;;;;;;2.83;1.70;;;;;;;;;;5020158;28;20059;-65
2023/02/25 11:28:06;;;;;;;4.15;1.98;;;;;;;;;;5071515;28;20044;-64
2023/02/25 11:30:38;;;;;;;4.60;2.50;;;;;;;;;;5072108;28;20040;-65
2023/02/25 11:33:13;;;;;;;;;;;;;;;;;;5072220;28;20052;-64
2023/02/25 11:35:43;;;;;;;7.65;1.90;;;;;;;;;;5035652;28;19927;-66
2023/02/25 11:38:40;;;;;;;2.58;1.60;;;;;;;;;;5020988;28;20064;-65
2023/02/25 11:41:21;;;;;;;1.33;0.93;;;;;;;;;;4922777;28;20066;-65
2023/02/25 11:43:52;;;;;;;2.95;1.13;;;;;;;;;;4970734;28;20062;-64
2023/02/25 11:46:29;;;;;;;0.90;0.60;;;;;;;;;;4970175;28;20066;-66
2023/02/25 11:49:09;;;;;;;0.90;0.50;;;;;;;;;;4955253;28;20054;-65
2023/02/25 11:52:02;;;;;;;0.50;0.40;;;;;;;;;;4970332;28;20059;-65
2023/02/25 11:54:54;;;;;;;0.60;0.38;;;;;;;;;;4953958;28;20055;-66
2023/02/25 11:57:43;;;;;;;0.73;0.52;;;;;;;;;;4939204;28;20159;-65
2023/02/25 12:00:20;;;;;;;0.57;0.35;;;;;;;;;;4970427;28;20151;-65
2023/02/25 12:03:24;;;;;;;0.93;0.60;;;;;;;;;;4970633;28;20462;-65
2023/02/25 12:06:09;;;;;;;1.13;0.73;;;;;;;;;;4884394;29;20396;-66
2023/02/25 12:09:00;;;;;;;0.47;0.20;;;;;;;;;;4931763;29;20051;-70
2023/02/25 12:11:47;;;;;;;3.03;0.35;;;;;;;;;;4931248;29;20064;-67
2023/02/25 12:14:52;;;;;;;0.45;0.30;;;;;;;;;;4931934;29;20046;-66
2023/02/25 12:17:25;;;;;;;0.90;0.30;;;;;;;;;;4941806;28;20059;-65
2023/02/25 12:20:16;;;;;;;0.63;0.50;;;;;;;;;;5008887;28;20391;-66
2023/02/25 12:23:21;;;;;;;2.83;0.40;;;;;;;;;;4940723;28;20058;-66
2023/02/25 12:25:57;;;;;;;2.22;0.30;;;;;;;;;;4989253;28;20613;-65
2023/02/25 12:28:39;;;;;;;2.38;0.40;;;;;;;;;;4989468;28;20380;-65
2023/02/25 12:31:29;;;;;;;;;;;;;;;;;;4974000;28;20066;-66
2023/02/25 12:34:07;;;;;;;1.17;0.70;;;;;;;;;;4973765;28;19928;-64
2023/02/25 12:37:06;;;;;;;1.25;0.68;;;;;;;;;;4989490;28;20062;-64
2023/02/25 12:39:57;;;;;;;1.85;0.43;;;;;;;;;;4989452;28;20042;-66
2023/02/25 12:42:42;;;;;;;0.30;0.28;;;;;;;;;;4969999;28;20060;-65
2023/02/25 12:45:17;;;;;;;1.63;0.32;;;;;;;;;;4998817;28;20065;-66
2023/02/25 12:48:21;;;;;;;1.20;0.40;;;;;;;;;;5035045;28;20057;-65
2023/02/25 12:51:31;;;;;;;0.65;0.38;;;;;;;;;;5052663;28;20397;-66
2023/02/25 12:54:28;;;;;;;0.57;0.20;;;;;;;;;;5052422;28;20053;-66
2023/02/25 12:57:01;;;;;;;0.50;0.40;;;;;;;;;;4987190;28;20053;-65
2023/02/25 12:59:58;;;;;;;0.55;0.30;;;;;;;;;;5054840;28;20060;-65
2023/02/25 13:02:43;;;;;;;0.38;0.30;;;;;;;;;;5072644;28;20075;-66
2023/02/25 13:06:06;;;;;;;2.00;0.38;;;;;;;;;;5074390;28;20071;-68
2023/02/25 13:08:36;;;;;;;2.85;0.47;;;;;;;;;;4941113;28;20047;-66
2023/02/25 13:11:43;;;;;;;0.52;0.38;;;;;;;;;;4973487;28;20431;-67
2023/02/25 13:14:52;;;;;;;1.58;0.82;;;;;;;;;;4934894;29;20641;-66
2023/02/25 13:17:42;;;;;;;0.40;0.40;;;;;;;;;;4919541;29;20059;-66
2023/02/25 13:20:23;;;;;;;0.82;0.40;;;;;;;;;;4934714;29;20522;-66
2023/02/25 13:23:07;;;;;;;0.60;0.30;;;;;;;;;;4934595;29;20076;-68
2023/02/25 13:25:57;;;;;;;0.85;0.30;;;;;;;;;;4903283;29;20440;-65
2023/02/25 13:29:04;;;;;;;1.35;0.40;;;;;;;;;;4843787;29;20534;-68
2023/02/25 13:32:10;;;;;;;0.73;0.43;;;;;;;;;;4859417;29;20171;-66
2023/02/25 13:34:46;;;;;;;1.35;0.40;;;;;;;;;;4859303;29;20076;-66
2023/02/25 13:37:18;;;;;;;0.82;0.43;;;;;;;;;;4859407;29;20053;-66
2023/02/25 13:39:53;;;;;;;0.30;0.22;;;;;;;;;;4859583;29;20422;-65
2023/02/25 13:42:47;;;;;;;1.67;0.43;;;;;;;;;;4879515;29;20409;-67
2023/02/25 13:45:34;;;;;;;0.70;0.50;;;;;;;;;;4899038;29;20059;-67
2023/02/25 13:48:27;;;;;;;1.60;0.38;;;;;;;;;;4915093;29;20055;-67
2023/02/25 13:51:24;;;;;;;2.28;0.47;;;;;;;;;;4937363;29;20059;-68
2023/02/25 13:54:18;;;;;;;0.68;0.30;;;;;;;;;;4937366;29;20051;-66
2023/02/25 13:57:00;;;;;;;0.50;0.32;;;;;;;;;;4937072;29;20511;-65
2023/02/25 14:00:00;;;;;;;0.60;0.30;;;;;;;;;;4921403;29;20055;-66
2023/02/25 14:03:00;;;;;;;1.25;0.55;;;;;;;;;;4953349;28;20051;-66
2023/02/25 14:05:36;;;;;;;1.52;0.70;;;;;;;;;;4953269;28;20061;-66
2023/02/25 14:08:21;;;;;;;1.08;0.40;;;;;;;;;;5022803;28;20084;-66
2023/02/25 14:11:13;;;;;;;0.45;0.30;;;;;;;;;;5073573;28;20493;-66
2023/02/25 14:14:12;;;;;;;1.00;0.80;;;;;;;;;;4992000;28;20414;-70
2023/02/25 14:17:02;;;;;;;2.13;0.50;;;;;;;;;;4991803;28;20057;-68
2023/02/25 14:19:50;;;;;;;;;;;;;;;;;;4975688;28;20069;-65
2023/02/25 14:23:04;;;;;;;2.25;0.70;;;;;;;;;;4991456;28;20305;-68
2023/02/25 14:25:52;;;;;;;1.10;0.50;;;;;;;;;;4919622;29;20058;-67
2023/02/25 14:28:35;;;;;;;1.98;0.40;;;;;;;;;;4883026;29;20052;-66
2023/02/25 14:31:47;;;;;;;0.90;0.35;;;;;;;;;;4914556;29;20060;-67
2023/02/25 14:34:40;;;;;;;1.13;0.77;;;;;;;;;;4912734;29;20413;-66
2023/02/25 14:37:42;;;;;;;0.60;0.43;;;;;;;;;;4883683;29;20063;-67
2023/02/25 14:40:20;;;;;;;1.50;0.43;;;;;;;;;;4928970;29;20044;-67
2023/02/25 14:42:59;;;;;;;3.97;0.40;;;;;;;;;;4914406;29;20052;-66
2023/02/25 14:45:53;;;;;;;0.40;0.32;;;;;;;;;;4898073;29;20048;-67
2023/02/25 14:48:55;;;;;;;1.10;0.60;;;;;;;;;;4897813;29;20628;-67
2023/02/25 14:51:28;;;;;;;3.33;0.40;;;;;;;;;;4906423;29;20508;-66
2023/02/25 14:54:31;;;;;;;2.22;0.50;;;;;;;;;;4932972;29;20071;-66
2023/02/25 14:57:16;;;;;;;0.73;0.73;;;;;;;;;;4955060;28;20050;-67
2023/02/25 15:00:04;;;;;;;0.55;0.32;;;;;;;;;;4955111;28;20518;-67
2023/02/25 15:02:57;;;;;;;0.93;0.30;;;;;;;;;;4971435;28;20164;-66
2023/02/25 15:06:03;;;;;;;0.52;0.40;;;;;;;;;;4958964;28;20154;-68
2023/02/25 15:08:56;;;;;;;0.60;0.40;;;;;;;;;;4941768;28;20502;-66
2023/02/25 15:11:47;;;;;;;0.88;0.40;;;;;;;;;;4990704;28;20078;-67
2023/02/25 15:14:21;;;;;;;0.35;0.30;;;;;;;;;;4990515;28;20097;-67
2023/02/25 15:16:51;;;;;;;1.02;0.40;;;;;;;;;;4990268;28;20597;-66
2023/02/25 15:20:09;;;;;;;1.10;0.40;;;;;;;;;;4990605;28;20522;-67
2023/02/25 15:23:07;;;;;;;1.00;0.40;;;;;;;;;;4951207;29;20074;-67
2023/02/25 15:25:41;;;;;;;0.50;0.50;;;;;;;;;;4951302;29;20047;-66
2023/02/25 15:28:29;;;;;;;0.80;0.65;;;;;;;;;;4900792;28;20054;-64
2023/02/25 15:30:59;;;;;;;0.93;0.43;;;;;;;;;;4957916;28;20545;-66
2023/02/25 15:33:36;;;;;;;0.90;0.60;;;;;;;;;;4973768;28;20046;-65
2023/02/25 15:36:16;;;;;;;1.55;0.40;;;;;;;;;;4990446;28;20578;-65
2023/02/25 15:38:51;;;;;;;1.02;0.65;;;;;;;;;;4989925;28;20080;-65
2023/02/25 15:41:27;;;;;;;3.05;0.60;;;;;;;;;;4990220;28;20054;-66
2023/02/25 15:44:01;;;;;;;0.80;0.40;;;;;;;;;;4990001;28;20051;-65